sensor_id;sensor_type;location;lat;lon;timestamp;P1;durP1;ratioP1;P2;durP2;ratioP2
16673;SDS011;8450;52.654;10.326;2022-08-01T05:19:40;7.50;;;6.73;;
16673;SDS011;8450;52.654;10.326;2022-08-01T05:22:06;7.33;;;6.63;;
16673;SDS011;8450;52.654;10.326;2022-08-01T05:24:33;8.27;;;6.63;;
16673;SDS011;8450;52.654;10.326;2022-08-01T05:27:00;6.70;;;6.10;;
16673;SDS011;8450;52.654;10.326;2022-08-01T05:29:26;5.60;;;5.10;;
16673;SDS011;8450;52.654;10.326;2022-08-01T05:31:52;5.27;;;4.53;;
16673;SDS011;8450;52.654;10.326;2022-08-01T05:34:18;4.83;;;4.27;;
16673;SDS011;8450;52.654;10.326;2022-08-01T05:36:45;5.33;;;4.60;;
16673;SDS011;8450;52.654;10.326;2022-08-01T05:39:11;5.97;;;4.33;;
16673;SDS011;8450;52.654;10.326;2022-08-01T05:41:38;4.50;;;4.10;;
16673;SDS011;8450;52.654;10.326;2022-08-01T05:44:04;4.10;;;3.70;;
16673;SDS011;8450;52.654;10.326;2022-08-01T05:46:30;5.23;;;4.50;;
16673;SDS011;8450;52.654;10.326;2022-08-01T05:48:56;7.37;;;3.93;;
16673;SDS011;8450;52.654;10.326;2022-08-01T05:51:23;3.97;;;3.57;;
16673;SDS011;8450;52.654;10.326;2022-08-01T05:53:49;4.30;;;3.47;;
16673;SDS011;8450;52.654;10.326;2022-08-01T05:56:14;4.37;;;3.70;;
16673;SDS011;8450;52.654;10.326;2022-08-01T05:58:40;4.10;;;3.70;;
16673;SDS011;8450;52.654;10.326;2022-08-01T06:01:05;3.80;;;3.40;;
16673;SDS011;8450;52.654;10.326;2022-08-01T06:03:31;6.73;;;3.63;;
16673;SDS011;8450;52.654;10.326;2022-08-01T06:05:58;4.73;;;3.00;;
16673;SDS011;8450;52.654;10.326;2022-08-01T06:08:27;3.57;;;3.27;;
16673;SDS011;8450;52.654;10.326;2022-08-01T06:10:53;5.03;;;3.13;;
16673;SDS011;8450;52.654;10.326;2022-08-01T06:13:19;4.10;;;3.20;;
16673;SDS011;8450;52.654;10.326;2022-08-01T06:15:45;4.53;;;3.50;;
16673;SDS011;8450;52.654;10.326;2022-08-01T06:18:11;4.00;;;3.60;;
16673;SDS011;8450;52.654;10.326;2022-08-01T06:20:37;4.20;;;3.63;;
16673;SDS011;8450;52.654;10.326;2022-08-01T06:23:02;4.77;;;3.80;;
16673;SDS011;8450;52.654;10.326;2022-08-01T06:25:28;4.43;;;4.03;;
16673;SDS011;8450;52.654;10.326;2022-08-01T06:27:54;6.00;;;4.27;;
16673;SDS011;8450;52.654;10.326;2022-08-01T06:30:20;5.33;;;3.80;;
16673;SDS011;8450;52.654;10.326;2022-08-01T06:32:45;4.03;;;3.73;;
16673;SDS011;8450;52.654;10.326;2022-08-01T06:35:12;4.07;;;3.67;;
16673;SDS011;8450;52.654;10.326;2022-08-01T06:37:38;5.33;;;3.13;;
16673;SDS011;8450;52.654;10.326;2022-08-01T06:40:04;4.47;;;3.40;;
16673;SDS011;8450;52.654;10.326;2022-08-01T06:42:31;3.30;;;3.00;;
16673;SDS011;8450;52.654;10.326;2022-08-01T06:45:03;3.10;;;2.87;;
16673;SDS011;8450;52.654;10.326;2022-08-01T06:47:30;2.40;;;2.20;;
16673;SDS011;8450;52.654;10.326;2022-08-01T06:49:56;2.70;;;2.40;;
16673;SDS011;8450;52.654;10.326;2022-08-01T06:52:21;2.67;;;2.47;;
16673;SDS011;8450;52.654;10.326;2022-08-01T06:54:47;3.90;;;2.30;;
16673;SDS011;8450;52.654;10.326;2022-08-01T06:57:12;3.50;;;2.73;;
16673;SDS011;8450;52.654;10.326;2022-08-01T06:59:38;2.77;;;2.57;;
16673;SDS011;8450;52.654;10.326;2022-08-01T07:02:04;3.93;;;3.03;;
16673;SDS011;8450;52.654;10.326;2022-08-01T07:04:29;2.57;;;2.37;;
16673;SDS011;8450;52.654;10.326;2022-08-01T07:06:55;2.70;;;2.50;;
16673;SDS011;8450;52.654;10.326;2022-08-01T07:09:21;3.50;;;2.83;;
16673;SDS011;8450;52.654;10.326;2022-08-01T07:11:46;3.33;;;3.03;;
16673;SDS011;8450;52.654;10.326;2022-08-01T07:14:12;5.23;;;2.70;;
16673;SDS011;8450;52.654;10.326;2022-08-01T07:16:37;2.93;;;2.73;;
16673;SDS011;8450;52.654;10.326;2022-08-01T07:19:03;2.70;;;2.50;;
16673;SDS011;8450;52.654;10.326;2022-08-01T07:21:29;2.47;;;2.27;;
16673;SDS011;8450;52.654;10.326;2022-08-01T07:23:55;3.80;;;2.70;;
16673;SDS011;8450;52.654;10.326;2022-08-01T07:26:20;2.83;;;2.50;;
16673;SDS011;8450;52.654;10.326;2022-08-01T07:28:46;2.63;;;2.43;;
16673;SDS011;8450;52.654;10.326;2022-08-01T07:31:11;2.73;;;2.53;;
16673;SDS011;8450;52.654;10.326;2022-08-01T07:33:37;3.77;;;2.40;;
16673;SDS011;8450;52.654;10.326;2022-08-01T07:36:02;2.60;;;2.40;;
16673;SDS011;8450;52.654;10.326;2022-08-01T07:38:29;4.00;;;2.93;;
16673;SDS011;8450;52.654;10.326;2022-08-01T07:40:54;2.53;;;2.33;;
16673;SDS011;8450;52.654;10.326;2022-08-01T07:43:20;4.07;;;2.70;;
16673;SDS011;8450;52.654;10.326;2022-08-01T07:45:45;4.63;;;2.67;;
16673;SDS011;8450;52.654;10.326;2022-08-01T07:48:11;2.63;;;2.43;;
16673;SDS011;8450;52.654;10.326;2022-08-01T07:50:37;3.20;;;2.70;;
16673;SDS011;8450;52.654;10.326;2022-08-01T07:53:02;3.47;;;2.83;;
16673;SDS011;8450;52.654;10.326;2022-08-01T07:55:29;2.60;;;2.40;;
16673;SDS011;8450;52.654;10.326;2022-08-01T07:57:55;2.20;;;2.10;;
16673;SDS011;8450;52.654;10.326;2022-08-01T08:00:20;2.87;;;2.27;;
16673;SDS011;8450;52.654;10.326;2022-08-01T08:02:46;3.93;;;1.80;;
16673;SDS011;8450;52.654;10.326;2022-08-01T08:05:11;2.83;;;1.90;;
16673;SDS011;8450;52.654;10.326;2022-08-01T08:07:37;2.33;;;1.73;;
16673;SDS011;8450;52.654;10.326;2022-08-01T08:10:04;1.80;;;1.70;;
16673;SDS011;8450;52.654;10.326;2022-08-01T08:12:30;1.67;;;1.57;;
16673;SDS011;8450;52.654;10.326;2022-08-01T08:14:56;3.07;;;1.83;;
16673;SDS011;8450;52.654;10.326;2022-08-01T08:17:24;1.80;;;1.70;;
16673;SDS011;8450;52.654;10.326;2022-08-01T08:19:50;1.80;;;1.70;;
16673;SDS011;8450;52.654;10.326;2022-08-01T08:22:15;2.33;;;1.77;;
16673;SDS011;8450;52.654;10.326;2022-08-01T08:24:41;2.33;;;1.70;;
16673;SDS011;8450;52.654;10.326;2022-08-01T08:27:06;1.60;;;1.50;;
16673;SDS011;8450;52.654;10.326;2022-08-01T08:29:32;1.83;;;1.50;;
16673;SDS011;8450;52.654;10.326;2022-08-01T08:31:58;1.50;;;1.40;;
16673;SDS011;8450;52.654;10.326;2022-08-01T08:34:25;2.03;;;1.57;;
16673;SDS011;8450;52.654;10.326;2022-08-01T08:36:52;1.50;;;1.40;;
16673;SDS011;8450;52.654;10.326;2022-08-01T08:39:19;2.23;;;1.30;;
16673;SDS011;8450;52.654;10.326;2022-08-01T08:41:45;3.10;;;1.50;;
16673;SDS011;8450;52.654;10.326;2022-08-01T08:44:10;2.10;;;1.50;;
16673;SDS011;8450;52.654;10.326;2022-08-01T08:46:43;1.60;;;1.50;;
16673;SDS011;8450;52.654;10.326;2022-08-01T08:49:11;3.40;;;1.50;;
16673;SDS011;8450;52.654;10.326;2022-08-01T08:51:39;2.70;;;1.07;;
16673;SDS011;8450;52.654;10.326;2022-08-01T08:54:07;2.00;;;1.33;;
16673;SDS011;8450;52.654;10.326;2022-08-01T08:56:35;2.00;;;1.00;;
16673;SDS011;8450;52.654;10.326;2022-08-01T08:59:03;1.50;;;1.40;;
16673;SDS011;8450;52.654;10.326;2022-08-01T09:01:30;1.30;;;1.20;;
16673;SDS011;8450;52.654;10.326;2022-08-01T09:03:58;1.10;;;1.00;;
16673;SDS011;8450;52.654;10.326;2022-08-01T09:06:24;2.30;;;1.20;;
16673;SDS011;8450;52.654;10.326;2022-08-01T09:08:49;1.67;;;1.20;;
16673;SDS011;8450;52.654;10.326;2022-08-01T09:11:15;1.40;;;1.30;;
16673;SDS011;8450;52.654;10.326;2022-08-01T09:13:41;1.63;;;1.40;;
16673;SDS011;8450;52.654;10.326;2022-08-01T09:16:06;1.63;;;1.30;;
16673;SDS011;8450;52.654;10.326;2022-08-01T09:21:21;1.30;;;1.20;;
16673;SDS011;8450;52.654;10.326;2022-08-01T09:23:50;1.67;;;1.30;;
16673;SDS011;8450;52.654;10.326;2022-08-01T09:26:17;1.57;;;1.40;;
16673;SDS011;8450;52.654;10.326;2022-08-01T09:28:46;2.10;;;1.20;;
16673;SDS011;8450;52.654;10.326;2022-08-01T09:31:17;1.50;;;1.37;;
16673;SDS011;8450;52.654;10.326;2022-08-01T09:36:13;1.20;;;1.10;;
16673;SDS011;8450;52.654;10.326;2022-08-01T09:38:38;1.77;;;1.30;;
16673;SDS011;8450;52.654;10.326;2022-08-01T09:41:04;1.87;;;1.20;;
16673;SDS011;8450;52.654;10.326;2022-08-01T09:43:30;0.90;;;0.90;;
16673;SDS011;8450;52.654;10.326;2022-08-01T09:45:56;1.70;;;1.30;;
16673;SDS011;8450;52.654;10.326;2022-08-01T09:48:22;3.13;;;1.30;;
16673;SDS011;8450;52.654;10.326;2022-08-01T09:50:49;2.60;;;1.13;;
16673;SDS011;8450;52.654;10.326;2022-08-01T09:53:16;2.50;;;1.43;;
16673;SDS011;8450;52.654;10.326;2022-08-01T09:55:42;1.93;;;1.23;;
16673;SDS011;8450;52.654;10.326;2022-08-01T09:58:09;3.50;;;1.40;;
16673;SDS011;8450;52.654;10.326;2022-08-01T10:00:37;5.07;;;1.90;;
16673;SDS011;8450;52.654;10.326;2022-08-01T10:03:23;1.97;;;1.53;;
16673;SDS011;8450;52.654;10.326;2022-08-01T10:05:50;2.63;;;1.90;;
16673;SDS011;8450;52.654;10.326;2022-08-01T10:08:16;1.80;;;1.60;;
16673;SDS011;8450;52.654;10.326;2022-08-01T10:10:49;2.20;;;1.90;;
16673;SDS011;8450;52.654;10.326;2022-08-01T10:13:38;4.20;;;1.70;;
16673;SDS011;8450;52.654;10.326;2022-08-01T10:16:05;2.13;;;1.93;;
16673;SDS011;8450;52.654;10.326;2022-08-01T10:18:32;3.23;;;1.73;;
16673;SDS011;8450;52.654;10.326;2022-08-01T10:21:00;2.10;;;1.60;;
16673;SDS011;8450;52.654;10.326;2022-08-01T10:23:29;3.27;;;2.30;;
16673;SDS011;8450;52.654;10.326;2022-08-01T10:26:00;4.03;;;2.03;;
16673;SDS011;8450;52.654;10.326;2022-08-01T10:28:26;2.63;;;1.80;;
16673;SDS011;8450;52.654;10.326;2022-08-01T10:30:56;3.30;;;2.03;;
16673;SDS011;8450;52.654;10.326;2022-08-01T10:33:23;4.00;;;2.53;;
16673;SDS011;8450;52.654;10.326;2022-08-01T10:35:49;3.33;;;2.20;;
16673;SDS011;8450;52.654;10.326;2022-08-01T10:38:15;4.30;;;2.10;;
16673;SDS011;8450;52.654;10.326;2022-08-01T10:40:42;3.83;;;2.17;;
16673;SDS011;8450;52.654;10.326;2022-08-01T10:43:11;2.83;;;2.00;;
16673;SDS011;8450;52.654;10.326;2022-08-01T10:45:38;2.70;;;1.90;;
16673;SDS011;8450;52.654;10.326;2022-08-01T10:50:57;3.07;;;2.03;;
16673;SDS011;8450;52.654;10.326;2022-08-01T10:53:25;4.90;;;2.47;;
16673;SDS011;8450;52.654;10.326;2022-08-01T10:55:57;3.43;;;2.10;;
16673;SDS011;8450;52.654;10.326;2022-08-01T11:03:55;4.73;;;2.30;;
16673;SDS011;8450;52.654;10.326;2022-08-01T11:06:25;3.67;;;2.10;;
16673;SDS011;8450;52.654;10.326;2022-08-01T11:09:04;4.33;;;1.80;;
16673;SDS011;8450;52.654;10.326;2022-08-01T11:15:16;4.27;;;2.00;;
16673;SDS011;8450;52.654;10.326;2022-08-01T11:17:44;7.30;;;2.47;;
16673;SDS011;8450;52.654;10.326;2022-08-01T11:20:18;3.70;;;2.10;;
16673;SDS011;8450;52.654;10.326;2022-08-01T11:25:23;6.33;;;2.30;;
16673;SDS011;8450;52.654;10.326;2022-08-01T11:28:14;4.07;;;2.27;;
16673;SDS011;8450;52.654;10.326;2022-08-01T11:30:44;8.13;;;2.13;;
16673;SDS011;8450;52.654;10.326;2022-08-01T11:33:15;4.80;;;2.40;;
16673;SDS011;8450;52.654;10.326;2022-08-01T11:38:37;4.07;;;2.13;;
16673;SDS011;8450;52.654;10.326;2022-08-01T11:41:14;3.63;;;2.07;;
16673;SDS011;8450;52.654;10.326;2022-08-01T11:52:03;5.60;;;2.27;;
16673;SDS011;8450;52.654;10.326;2022-08-01T11:54:36;4.57;;;2.20;;
16673;SDS011;8450;52.654;10.326;2022-08-01T11:57:05;4.30;;;2.40;;
16673;SDS011;8450;52.654;10.326;2022-08-01T11:59:36;3.93;;;2.30;;
16673;SDS011;8450;52.654;10.326;2022-08-01T12:02:04;4.80;;;2.73;;
16673;SDS011;8450;52.654;10.326;2022-08-01T12:04:47;4.47;;;2.30;;
16673;SDS011;8450;52.654;10.326;2022-08-01T12:07:18;3.57;;;2.10;;
16673;SDS011;8450;52.654;10.326;2022-08-01T12:09:44;4.37;;;2.23;;
16673;SDS011;8450;52.654;10.326;2022-08-01T12:12:11;2.70;;;2.07;;
16673;SDS011;8450;52.654;10.326;2022-08-01T12:14:42;3.57;;;2.17;;
16673;SDS011;8450;52.654;10.326;2022-08-01T12:17:08;3.90;;;2.60;;
16673;SDS011;8450;52.654;10.326;2022-08-01T12:19:33;4.57;;;2.50;;
16673;SDS011;8450;52.654;10.326;2022-08-01T12:22:04;3.40;;;2.20;;
16673;SDS011;8450;52.654;10.326;2022-08-01T12:24:30;4.13;;;2.10;;
16673;SDS011;8450;52.654;10.326;2022-08-01T12:26:56;4.60;;;2.33;;
16673;SDS011;8450;52.654;10.326;2022-08-01T12:29:34;3.20;;;2.20;;
16673;SDS011;8450;52.654;10.326;2022-08-01T12:32:21;4.90;;;2.33;;
16673;SDS011;8450;52.654;10.326;2022-08-01T12:35:05;5.13;;;2.33;;
16673;SDS011;8450;52.654;10.326;2022-08-01T12:37:34;4.63;;;2.40;;
16673;SDS011;8450;52.654;10.326;2022-08-01T12:40:14;4.97;;;2.53;;
16673;SDS011;8450;52.654;10.326;2022-08-01T12:42:42;4.37;;;2.53;;
16673;SDS011;8450;52.654;10.326;2022-08-01T12:45:09;5.43;;;2.60;;
16673;SDS011;8450;52.654;10.326;2022-08-01T12:47:37;4.03;;;2.77;;
16673;SDS011;8450;52.654;10.326;2022-08-01T12:50:07;6.40;;;2.50;;
16673;SDS011;8450;52.654;10.326;2022-08-01T12:52:36;6.00;;;2.50;;
16673;SDS011;8450;52.654;10.326;2022-08-01T12:55:15;4.63;;;2.43;;
16673;SDS011;8450;52.654;10.326;2022-08-01T12:57:43;3.30;;;2.90;;
16673;SDS011;8450;52.654;10.326;2022-08-01T13:00:24;4.00;;;2.53;;
16673;SDS011;8450;52.654;10.326;2022-08-01T13:03:10;5.63;;;2.23;;
16673;SDS011;8450;52.654;10.326;2022-08-01T13:05:47;2.47;;;1.93;;
16673;SDS011;8450;52.654;10.326;2022-08-01T13:08:24;3.47;;;2.60;;
16673;SDS011;8450;52.654;10.326;2022-08-01T13:11:05;4.07;;;2.40;;
16673;SDS011;8450;52.654;10.326;2022-08-01T13:13:40;5.73;;;2.63;;
16673;SDS011;8450;52.654;10.326;2022-08-01T13:16:08;4.30;;;2.50;;
16673;SDS011;8450;52.654;10.326;2022-08-01T13:18:35;2.93;;;2.30;;
16673;SDS011;8450;52.654;10.326;2022-08-01T13:23:41;5.50;;;2.70;;
16673;SDS011;8450;52.654;10.326;2022-08-01T13:29:07;2.57;;;2.20;;
16673;SDS011;8450;52.654;10.326;2022-08-01T13:31:35;3.53;;;2.33;;
16673;SDS011;8450;52.654;10.326;2022-08-01T13:34:01;8.73;;;2.70;;
16673;SDS011;8450;52.654;10.326;2022-08-01T13:36:27;5.27;;;2.40;;
16673;SDS011;8450;52.654;10.326;2022-08-01T13:38:53;6.77;;;2.70;;
16673;SDS011;8450;52.654;10.326;2022-08-01T13:41:38;7.13;;;2.73;;
16673;SDS011;8450;52.654;10.326;2022-08-01T13:44:04;4.13;;;2.53;;
16673;SDS011;8450;52.654;10.326;2022-08-01T13:46:30;5.17;;;2.77;;
16673;SDS011;8450;52.654;10.326;2022-08-01T13:48:56;3.40;;;2.30;;
16673;SDS011;8450;52.654;10.326;2022-08-01T13:51:22;4.33;;;2.30;;
16673;SDS011;8450;52.654;10.326;2022-08-01T13:53:48;7.97;;;2.57;;
16673;SDS011;8450;52.654;10.326;2022-08-01T13:56:13;5.27;;;2.50;;
16673;SDS011;8450;52.654;10.326;2022-08-01T13:58:41;6.30;;;2.70;;
16673;SDS011;8450;52.654;10.326;2022-08-01T14:01:06;5.67;;;2.63;;
16673;SDS011;8450;52.654;10.326;2022-08-01T14:03:32;7.97;;;2.63;;
16673;SDS011;8450;52.654;10.326;2022-08-01T14:05:58;6.77;;;2.60;;
16673;SDS011;8450;52.654;10.326;2022-08-01T14:08:24;3.80;;;2.40;;
16673;SDS011;8450;52.654;10.326;2022-08-01T14:10:49;5.73;;;2.60;;
16673;SDS011;8450;52.654;10.326;2022-08-01T14:13:15;7.47;;;2.63;;
16673;SDS011;8450;52.654;10.326;2022-08-01T14:15:40;4.43;;;2.50;;
16673;SDS011;8450;52.654;10.326;2022-08-01T14:18:06;3.60;;;2.17;;
16673;SDS011;8450;52.654;10.326;2022-08-01T14:20:33;3.80;;;2.13;;
16673;SDS011;8450;52.654;10.326;2022-08-01T14:22:59;5.40;;;2.47;;
16673;SDS011;8450;52.654;10.326;2022-08-01T14:25:24;4.00;;;2.43;;
16673;SDS011;8450;52.654;10.326;2022-08-01T14:27:50;6.77;;;2.50;;
16673;SDS011;8450;52.654;10.326;2022-08-01T14:30:15;4.93;;;2.30;;
16673;SDS011;8450;52.654;10.326;2022-08-01T14:32:41;6.50;;;2.70;;
16673;SDS011;8450;52.654;10.326;2022-08-01T14:35:07;7.03;;;2.67;;
16673;SDS011;8450;52.654;10.326;2022-08-01T14:37:33;5.23;;;2.60;;
16673;SDS011;8450;52.654;10.326;2022-08-01T14:39:59;5.93;;;2.60;;
16673;SDS011;8450;52.654;10.326;2022-08-01T14:42:29;4.07;;;2.70;;
16673;SDS011;8450;52.654;10.326;2022-08-01T14:44:55;5.83;;;2.60;;
16673;SDS011;8450;52.654;10.326;2022-08-01T14:47:21;5.43;;;2.30;;
16673;SDS011;8450;52.654;10.326;2022-08-01T14:49:46;7.23;;;2.50;;
16673;SDS011;8450;52.654;10.326;2022-08-01T14:52:12;4.67;;;2.50;;
16673;SDS011;8450;52.654;10.326;2022-08-01T14:54:37;7.77;;;2.67;;
16673;SDS011;8450;52.654;10.326;2022-08-01T14:57:03;4.87;;;2.40;;
16673;SDS011;8450;52.654;10.326;2022-08-01T14:59:28;6.23;;;2.53;;
16673;SDS011;8450;52.654;10.326;2022-08-01T15:01:54;7.37;;;2.70;;
16673;SDS011;8450;52.654;10.326;2022-08-01T15:04:20;5.43;;;2.53;;
16673;SDS011;8450;52.654;10.326;2022-08-01T15:06:46;6.93;;;2.60;;
16673;SDS011;8450;52.654;10.326;2022-08-01T15:09:11;7.53;;;2.73;;
16673;SDS011;8450;52.654;10.326;2022-08-01T15:11:37;3.83;;;2.17;;
16673;SDS011;8450;52.654;10.326;2022-08-01T15:14:02;7.20;;;2.30;;
16673;SDS011;8450;52.654;10.326;2022-08-01T15:16:47;3.57;;;2.17;;
16673;SDS011;8450;52.654;10.326;2022-08-01T15:19:13;2.93;;;1.97;;
16673;SDS011;8450;52.654;10.326;2022-08-01T15:21:39;8.17;;;2.57;;
16673;SDS011;8450;52.654;10.326;2022-08-01T15:24:05;2.20;;;1.77;;
16673;SDS011;8450;52.654;10.326;2022-08-01T15:26:31;5.70;;;2.40;;
16673;SDS011;8450;52.654;10.326;2022-08-01T15:28:57;6.80;;;2.27;;
16673;SDS011;8450;52.654;10.326;2022-08-01T15:31:22;5.03;;;2.00;;
16673;SDS011;8450;52.654;10.326;2022-08-01T15:33:48;5.07;;;2.40;;
16673;SDS011;8450;52.654;10.326;2022-08-01T15:36:14;4.60;;;2.23;;
16673;SDS011;8450;52.654;10.326;2022-08-01T15:38:39;3.70;;;2.20;;
16673;SDS011;8450;52.654;10.326;2022-08-01T15:41:05;4.10;;;1.90;;
16673;SDS011;8450;52.654;10.326;2022-08-01T15:43:30;7.73;;;2.27;;
16673;SDS011;8450;52.654;10.326;2022-08-01T15:45:56;7.30;;;2.10;;
16673;SDS011;8450;52.654;10.326;2022-08-01T15:48:22;3.47;;;2.20;;
16673;SDS011;8450;52.654;10.326;2022-08-01T15:50:48;4.73;;;1.83;;
16673;SDS011;8450;52.654;10.326;2022-08-01T15:53:15;7.97;;;2.37;;
16673;SDS011;8450;52.654;10.326;2022-08-01T15:55:40;5.80;;;2.40;;
16673;SDS011;8450;52.654;10.326;2022-08-01T15:58:06;5.90;;;2.00;;
16673;SDS011;8450;52.654;10.326;2022-08-01T16:00:32;4.40;;;1.90;;
16673;SDS011;8450;52.654;10.326;2022-08-01T16:02:58;5.80;;;2.10;;
16673;SDS011;8450;52.654;10.326;2022-08-01T16:05:24;4.13;;;2.00;;
16673;SDS011;8450;52.654;10.326;2022-08-01T16:07:49;3.97;;;2.20;;
16673;SDS011;8450;52.654;10.326;2022-08-01T16:10:15;2.47;;;1.90;;
16673;SDS011;8450;52.654;10.326;2022-08-01T16:12:41;4.70;;;2.00;;
16673;SDS011;8450;52.654;10.326;2022-08-01T16:15:07;5.30;;;2.33;;
16673;SDS011;8450;52.654;10.326;2022-08-01T16:17:33;3.27;;;1.83;;
16673;SDS011;8450;52.654;10.326;2022-08-01T16:19:59;4.67;;;2.10;;
16673;SDS011;8450;52.654;10.326;2022-08-01T16:22:24;5.33;;;2.13;;
16673;SDS011;8450;52.654;10.326;2022-08-01T16:24:50;7.20;;;2.00;;
16673;SDS011;8450;52.654;10.326;2022-08-01T16:27:16;6.93;;;2.17;;
16673;SDS011;8450;52.654;10.326;2022-08-01T16:29:41;4.03;;;2.20;;
16673;SDS011;8450;52.654;10.326;2022-08-01T16:32:07;5.47;;;2.40;;
16673;SDS011;8450;52.654;10.326;2022-08-01T16:34:33;8.13;;;2.30;;
16673;SDS011;8450;52.654;10.326;2022-08-01T16:36:58;4.33;;;2.37;;
16673;SDS011;8450;52.654;10.326;2022-08-01T16:39:24;4.33;;;2.10;;
16673;SDS011;8450;52.654;10.326;2022-08-01T16:41:50;4.50;;;2.10;;
16673;SDS011;8450;52.654;10.326;2022-08-01T16:44:16;5.23;;;2.13;;
16673;SDS011;8450;52.654;10.326;2022-08-01T16:46:42;3.57;;;1.83;;
16673;SDS011;8450;52.654;10.326;2022-08-01T16:49:07;7.17;;;2.13;;
16673;SDS011;8450;52.654;10.326;2022-08-01T16:51:34;7.23;;;2.33;;
16673;SDS011;8450;52.654;10.326;2022-08-01T16:54:00;4.13;;;1.73;;
16673;SDS011;8450;52.654;10.326;2022-08-01T16:56:26;6.50;;;2.30;;
16673;SDS011;8450;52.654;10.326;2022-08-01T16:58:51;6.47;;;2.30;;
16673;SDS011;8450;52.654;10.326;2022-08-01T17:01:17;5.83;;;2.23;;
16673;SDS011;8450;52.654;10.326;2022-08-01T17:03:43;8.83;;;2.30;;
16673;SDS011;8450;52.654;10.326;2022-08-01T17:06:09;5.77;;;2.10;;
16673;SDS011;8450;52.654;10.326;2022-08-01T17:08:35;5.80;;;2.03;;
16673;SDS011;8450;52.654;10.326;2022-08-01T17:11:01;4.50;;;2.10;;
16673;SDS011;8450;52.654;10.326;2022-08-01T17:13:27;5.90;;;2.50;;
16673;SDS011;8450;52.654;10.326;2022-08-01T17:15:53;3.73;;;2.10;;
16673;SDS011;8450;52.654;10.326;2022-08-01T17:18:18;7.83;;;2.60;;
16673;SDS011;8450;52.654;10.326;2022-08-01T17:20:44;4.20;;;2.03;;
16673;SDS011;8450;52.654;10.326;2022-08-01T17:23:11;7.00;;;2.57;;
16673;SDS011;8450;52.654;10.326;2022-08-01T17:25:38;3.13;;;1.90;;
16673;SDS011;8450;52.654;10.326;2022-08-01T17:28:04;6.80;;;2.47;;
16673;SDS011;8450;52.654;10.326;2022-08-01T17:30:29;6.23;;;2.47;;
16673;SDS011;8450;52.654;10.326;2022-08-01T17:32:55;3.70;;;2.20;;
16673;SDS011;8450;52.654;10.326;2022-08-01T17:35:20;7.27;;;2.60;;
16673;SDS011;8450;52.654;10.326;2022-08-01T17:37:46;2.83;;;2.17;;
16673;SDS011;8450;52.654;10.326;2022-08-01T17:40:12;5.13;;;2.20;;
16673;SDS011;8450;52.654;10.326;2022-08-01T17:42:39;6.07;;;2.60;;
16673;SDS011;8450;52.654;10.326;2022-08-01T17:45:09;7.20;;;2.20;;
16673;SDS011;8450;52.654;10.326;2022-08-01T17:47:35;7.13;;;2.23;;
16673;SDS011;8450;52.654;10.326;2022-08-01T17:50:01;8.60;;;2.37;;
16673;SDS011;8450;52.654;10.326;2022-08-01T17:52:29;3.17;;;1.97;;
16673;SDS011;8450;52.654;10.326;2022-08-01T17:54:56;4.13;;;1.87;;
16673;SDS011;8450;52.654;10.326;2022-08-01T17:57:22;5.60;;;2.27;;
16673;SDS011;8450;52.654;10.326;2022-08-01T17:59:48;4.53;;;2.40;;
16673;SDS011;8450;52.654;10.326;2022-08-01T18:02:14;3.63;;;2.23;;
16673;SDS011;8450;52.654;10.326;2022-08-01T18:04:40;4.20;;;2.30;;
16673;SDS011;8450;52.654;10.326;2022-08-01T18:07:06;4.43;;;2.20;;
16673;SDS011;8450;52.654;10.326;2022-08-01T18:09:32;3.67;;;2.20;;
16673;SDS011;8450;52.654;10.326;2022-08-01T18:12:01;9.07;;;2.10;;
16673;SDS011;8450;52.654;10.326;2022-08-01T18:14:26;2.57;;;1.87;;
16673;SDS011;8450;52.654;10.326;2022-08-01T18:16:53;3.97;;;2.60;;
16673;SDS011;8450;52.654;10.326;2022-08-01T18:19:18;7.57;;;2.17;;
16673;SDS011;8450;52.654;10.326;2022-08-01T18:21:47;5.17;;;2.10;;
16673;SDS011;8450;52.654;10.326;2022-08-01T18:24:13;9.20;;;2.50;;
16673;SDS011;8450;52.654;10.326;2022-08-01T18:26:41;3.17;;;2.30;;
16673;SDS011;8450;52.654;10.326;2022-08-01T18:29:08;5.63;;;2.03;;
16673;SDS011;8450;52.654;10.326;2022-08-01T18:31:34;5.30;;;2.13;;
16673;SDS011;8450;52.654;10.326;2022-08-01T18:34:00;9.80;;;2.40;;
16673;SDS011;8450;52.654;10.326;2022-08-01T18:36:25;5.30;;;2.30;;
16673;SDS011;8450;52.654;10.326;2022-08-01T18:38:52;6.47;;;2.17;;
16673;SDS011;8450;52.654;10.326;2022-08-01T18:41:18;5.40;;;2.00;;
